< < Back
Terminal Aerodrome Forecast


Current Version              Previous Versions:   1  2  3  4  5  6  7  8  9  

Terminal Aerodrome Forecast

377
FTUS44 KBMX 022320
TAFMGM
TAF
KMGM 022320Z 0300/0324 33003KT P6SM BKN250=



Latest METAR

258
SAUS80 KWBC 030200 RRA
MTRMGM
METAR KMGM 030153Z 00000KT 10SM CLR 27/22 A3000 RMK AO2 SLP155
T02720222


USA.gov is the U.S. government's official web portal to all federal, state and local government web resources and services.